Time;durP1;ratioP1;P1;durP2;ratioP2;P2;SDS_P1;SDS_P2;PMS_P1;PMS_P2;Temp;Humidity;BMP_temperature;BMP_pressure;BME280_temperature;BME280_humidity;BME280_pressure;Samples;Min_cycle;Max_cycle;Signal;HPM_P1;HPM_P2
2022/07/13 00:01:11;;;;;;;2.55;1.33;;;17.60;99.90;;;;;;4343752;28;10000325;-78
2022/07/13 00:03:37;;;;;;;1.42;1.33;;;17.60;99.90;;;;;;5045065;28;20159;-78
2022/07/13 00:06:03;;;;;;;1.63;1.17;;;17.60;99.90;;;;;;5038079;28;20022;-78
2022/07/13 00:08:28;;;;;;;1.48;1.30;;;17.70;99.90;;;;;;5047336;28;20573;-78
2022/07/13 00:10:54;;;;;;;1.38;1.27;;;17.80;99.90;;;;;;5046941;28;20132;-78
2022/07/13 00:13:20;;;;;;;1.40;1.30;;;17.80;99.90;;;;;;5046577;28;20028;-79
2022/07/13 00:15:45;;;;;;;1.25;1.15;;;17.80;99.90;;;;;;5038456;28;20083;-78
2022/07/13 00:18:11;;;;;;;1.17;1.00;;;17.80;99.90;;;;;;5038322;28;20060;-78
2022/07/13 00:20:37;;;;;;;1.50;1.20;;;17.80;99.90;;;;;;5046694;28;20132;-79
2022/07/13 00:23:03;;;;;;;2.60;1.33;;;17.80;99.90;;;;;;5039362;28;20065;-78
2022/07/13 00:25:29;;;;;;;1.20;1.10;;;17.90;99.90;;;;;;5047584;28;20047;-78
2022/07/13 00:27:54;;;;;;;1.13;0.98;;;17.80;99.90;;;;;;5045711;28;20029;-78
2022/07/13 00:30:20;;;;;;;1.15;1.05;;;17.90;99.90;;;;;;5040189;28;20120;-78
2022/07/13 00:32:46;;;;;;;1.30;1.00;;;17.90;99.90;;;;;;5042479;28;20122;-78
2022/07/13 00:35:12;;;;;;;1.27;1.20;;;17.90;99.90;;;;;;5044627;28;20047;-78
2022/07/13 00:37:37;;;;;;;0.95;0.95;;;17.90;99.90;;;;;;5043275;28;20025;-78
2022/07/13 00:40:04;;;;;;;1.08;1.08;;;17.90;99.90;;;;;;5042075;28;20116;-78
2022/07/13 00:42:30;;;;;;;2.05;1.02;;;17.90;99.90;;;;;;5040704;28;20086;-78
2022/07/13 00:44:55;;;;;;;1.70;1.00;;;17.90;99.90;;;;;;5045171;28;20034;-78
2022/07/13 00:47:22;;;;;;;1.30;1.05;;;17.90;99.90;;;;;;5045674;28;20091;-78
2022/07/13 00:49:48;;;;;;;1.10;1.00;;;18.00;99.90;;;;;;5043973;28;20090;-78
2022/07/13 00:52:15;;;;;;;1.45;1.35;;;18.00;99.90;;;;;;5034751;28;20063;-78
2022/07/13 00:54:43;;;;;;;1.90;1.20;;;18.00;99.90;;;;;;5045512;28;20029;-78
2022/07/13 00:57:11;;;;;;;2.45;1.20;;;17.90;99.90;;;;;;5041393;28;20055;-78
2022/07/13 00:59:37;;;;;;;2.05;1.23;;;17.90;99.90;;;;;;5039132;28;20231;-78
2022/07/13 01:02:03;;;;;;;1.58;1.48;;;17.90;99.90;;;;;;5036383;28;20044;-78
2022/07/13 01:04:28;;;;;;;1.50;1.40;;;17.80;99.90;;;;;;5047898;28;20059;-78
2022/07/13 01:06:55;;;;;;;1.45;1.35;;;17.80;99.90;;;;;;5045666;28;20412;-78
2022/07/13 01:09:22;;;;;;;1.58;1.40;;;17.70;99.90;;;;;;5042225;28;20453;-78
2022/07/13 01:11:48;;;;;;;1.42;1.30;;;17.60;99.90;;;;;;5044160;28;20033;-78
2022/07/13 01:14:14;;;;;;;2.22;1.60;;;17.60;99.90;;;;;;5043522;28;20473;-79
2022/07/13 01:16:41;;;;;;;1.42;1.33;;;17.60;99.90;;;;;;5042082;28;20048;-78
2022/07/13 01:19:10;;;;;;;2.75;1.40;;;17.60;99.90;;;;;;5033527;28;20039;-78
2022/07/13 01:21:44;;;;;;;3.28;1.73;;;17.60;99.90;;;;;;5048312;28;20128;-78
2022/07/13 01:24:11;;;;;;;1.73;1.63;;;17.50;99.90;;;;;;5037359;28;20068;-78
2022/07/13 01:26:38;;;;;;;3.85;1.88;;;17.50;99.90;;;;;;5035039;28;20025;-78
2022/07/13 01:29:04;;;;;;;2.70;1.80;;;17.40;99.90;;;;;;5042930;28;20709;-78
2022/07/13 01:31:40;;;;;;;5.07;2.20;;;17.40;99.90;;;;;;5042915;28;20743;-78
2022/07/13 01:34:07;;;;;;;5.78;2.17;;;17.30;99.90;;;;;;5040802;28;20477;-78
2022/07/13 01:36:37;;;;;;;6.35;2.03;;;17.20;99.90;;;;;;5044329;28;20051;-78
2022/07/13 01:39:04;;;;;;;2.22;2.03;;;17.10;99.90;;;;;;5040362;28;20040;-78
2022/07/13 01:41:30;;;;;;;2.05;1.88;;;17.10;99.90;;;;;;5043975;28;20025;-78
2022/07/13 01:43:57;;;;;;;2.08;1.95;;;17.10;99.90;;;;;;5040581;28;20160;-78
2022/07/13 01:46:26;;;;;;;5.13;1.80;;;17.10;99.90;;;;;;5038679;28;20032;-79
2022/07/13 01:48:54;;;;;;;1.80;1.70;;;17.00;99.90;;;;;;5040973;28;20028;-78
2022/07/13 01:51:19;;;;;;;1.80;1.70;;;17.00;99.90;;;;;;5040186;28;20037;-78
2022/07/13 01:53:45;;;;;;;3.88;1.70;;;17.00;99.90;;;;;;5037390;28;20082;-79
2022/07/13 01:56:11;;;;;;;2.63;1.80;;;17.00;99.90;;;;;;5039037;28;20450;-78
2022/07/13 01:58:37;;;;;;;1.92;1.70;;;17.00;99.90;;;;;;5044824;28;20536;-78
2022/07/13 02:01:02;;;;;;;2.55;1.63;;;17.00;99.90;;;;;;5036729;28;20033;-78
2022/07/13 02:03:29;;;;;;;1.50;1.40;;;17.00;99.90;;;;;;5042803;28;20051;-78
2022/07/13 02:05:56;;;;;;;2.70;1.80;;;17.00;99.90;;;;;;5045759;28;20063;-78
2022/07/13 02:08:23;;;;;;;2.30;1.65;;;17.00;99.90;;;;;;5038530;28;20044;-78
2022/07/13 02:10:48;;;;;;;1.70;1.60;;;17.00;99.90;;;;;;5034911;28;20124;-78
2022/07/13 02:13:14;;;;;;;3.28;1.60;;;17.00;99.90;;;;;;5042407;28;20116;-78
2022/07/13 02:15:42;;;;;;;2.95;1.60;;;17.00;99.90;;;;;;5042535;28;20025;-78
2022/07/13 02:18:07;;;;;;;4.15;1.48;;;17.00;99.90;;;;;;5040144;28;20029;-78
2022/07/13 02:20:34;;;;;;;1.33;1.23;;;17.00;99.90;;;;;;5038996;28;20017;-78
2022/07/13 02:22:59;;;;;;;2.08;1.45;;;17.10;99.90;;;;;;5040463;28;20025;-78
2022/07/13 02:25:25;;;;;;;2.78;1.50;;;17.10;99.90;;;;;;5039591;28;20067;-78
2022/07/13 02:27:51;;;;;;;1.63;1.52;;;17.00;99.90;;;;;;5047136;28;20020;-78
2022/07/13 02:30:16;;;;;;;2.08;1.30;;;17.00;99.90;;;;;;5041580;28;20112;-78
2022/07/13 02:32:43;;;;;;;2.15;1.73;;;17.00;99.90;;;;;;5043189;28;20100;-79
2022/07/13 02:35:10;;;;;;;1.73;1.63;;;17.00;99.90;;;;;;5046953;28;20045;-79
2022/07/13 02:37:36;;;;;;;1.40;1.30;;;17.10;99.90;;;;;;5041818;28;20166;-78
2022/07/13 02:40:03;;;;;;;1.25;1.15;;;17.00;99.90;;;;;;5023754;28;20464;-78
2022/07/13 02:42:29;;;;;;;1.23;1.23;;;17.10;99.90;;;;;;5039127;28;20115;-79
2022/07/13 02:44:54;;;;;;;1.50;1.40;;;17.10;99.90;;;;;;5040584;28;20033;-79
2022/07/13 02:47:20;;;;;;;1.42;1.20;;;17.10;99.90;;;;;;5041990;28;20036;-78
2022/07/13 02:49:46;;;;;;;1.20;1.10;;;17.10;99.90;;;;;;5036272;28;20067;-79
2022/07/13 02:52:12;;;;;;;1.58;1.48;;;17.10;99.90;;;;;;5044957;28;20039;-79
2022/07/13 02:54:38;;;;;;;1.30;1.20;;;17.10;99.90;;;;;;5041875;28;20116;-78
2022/07/13 02:57:05;;;;;;;2.05;1.45;;;17.00;99.90;;;;;;5042919;28;20073;-78
2022/07/13 02:59:35;;;;;;;1.42;1.20;;;17.00;99.90;;;;;;5048044;28;20524;-79
2022/07/13 03:02:01;;;;;;;1.58;1.30;;;17.00;99.90;;;;;;5041598;28;20116;-79
2022/07/13 03:04:26;;;;;;;2.08;1.60;;;17.10;99.90;;;;;;5041319;28;20116;-79
2022/07/13 03:06:52;;;;;;;1.40;1.30;;;17.00;99.90;;;;;;5046193;28;20053;-79
2022/07/13 03:09:18;;;;;;;2.85;1.45;;;17.00;99.90;;;;;;5038735;28;20544;-78
2022/07/13 03:11:44;;;;;;;2.85;1.95;;;17.10;99.90;;;;;;5043491;28;20053;-79
2022/07/13 03:14:09;;;;;;;2.72;1.90;;;17.10;99.90;;;;;;5034507;28;20213;-79
2022/07/13 03:16:35;;;;;;;3.35;1.90;;;17.10;99.90;;;;;;5044659;28;20661;-78
2022/07/13 03:19:00;;;;;;;2.53;1.65;;;17.10;99.90;;;;;;5037516;28;20033;-77
2022/07/13 03:21:29;;;;;;;1.98;1.77;;;17.10;99.90;;;;;;5041758;28;20055;-78
2022/07/13 03:23:55;;;;;;;7.30;1.77;;;17.00;99.90;;;;;;5045922;28;20116;-78
2022/07/13 03:26:21;;;;;;;5.13;1.80;;;17.00;99.90;;;;;;5046932;28;20103;-79
2022/07/13 03:28:46;;;;;;;5.53;1.60;;;16.90;99.90;;;;;;5047263;28;20112;-79
2022/07/13 03:31:12;;;;;;;1.98;1.70;;;16.80;99.90;;;;;;5043955;28;20041;-79
2022/07/13 03:33:37;;;;;;;2.20;1.50;;;16.80;99.90;;;;;;5045179;28;20024;-79
2022/07/13 03:36:04;;;;;;;2.55;1.65;;;16.70;99.90;;;;;;5040077;28;20043;-79
2022/07/13 03:38:29;;;;;;;5.82;1.90;;;16.70;99.90;;;;;;5042299;28;20029;-80
2022/07/13 03:40:55;;;;;;;1.70;1.60;;;16.60;99.90;;;;;;5041506;28;20057;-79
2022/07/13 03:43:21;;;;;;;3.45;1.80;;;16.60;99.90;;;;;;5045441;28;20033;-80
2022/07/13 03:45:46;;;;;;;2.10;1.73;;;16.50;99.90;;;;;;5038258;28;20026;-80
2022/07/13 03:48:16;;;;;;;2.33;2.13;;;16.50;99.90;;;;;;5049094;28;20100;-80
2022/07/13 03:50:42;;;;;;;2.58;1.70;;;16.40;99.90;;;;;;5038927;28;20442;-80
2022/07/13 03:53:08;;;;;;;2.05;1.90;;;16.40;99.90;;;;;;5041648;28;20030;-80
2022/07/13 03:55:33;;;;;;;5.78;1.80;;;16.50;99.90;;;;;;5047129;28;20408;-80
2022/07/13 03:57:59;;;;;;;1.90;1.52;;;16.50;99.90;;;;;;5045791;28;20391;-80
2022/07/13 04:00:25;;;;;;;4.00;1.67;;;16.60;99.90;;;;;;5039408;28;20036;-80
2022/07/13 04:02:50;;;;;;;4.55;1.77;;;16.60;99.90;;;;;;5041642;28;20111;-79
2022/07/13 04:05:16;;;;;;;2.97;2.03;;;16.60;99.90;;;;;;5041159;28;20033;-79
2022/07/13 04:07:42;;;;;;;5.80;2.05;;;16.50;99.90;;;;;;5041973;28;20060;-79
2022/07/13 04:10:08;;;;;;;5.53;1.90;;;16.60;99.90;;;;;;5043767;28;20044;-79
2022/07/13 04:12:34;;;;;;;5.15;2.10;;;16.60;99.90;;;;;;5037010;28;20033;-79
2022/07/13 04:14:59;;;;;;;2.92;2.08;;;16.60;99.90;;;;;;5045652;28;20094;-79
2022/07/13 04:17:25;;;;;;;2.33;2.00;;;16.60;99.90;;;;;;5042607;28;20472;-79
2022/07/13 04:19:50;;;;;;;1.80;1.70;;;16.60;99.90;;;;;;5045346;28;20032;-79
2022/07/13 04:22:16;;;;;;;4.18;1.70;;;16.60;99.90;;;;;;5044397;28;20063;-79
2022/07/13 04:24:42;;;;;;;3.10;1.65;;;16.60;99.90;;;;;;5033750;28;20079;-79
2022/07/13 04:27:07;;;;;;;4.40;1.50;;;16.60;99.90;;;;;;5046716;28;20045;-79
2022/07/13 04:29:33;;;;;;;2.15;1.90;;;16.50;99.90;;;;;;5034216;28;20056;-79
2022/07/13 04:31:59;;;;;;;2.78;2.00;;;16.60;99.90;;;;;;5045724;28;20063;-79
2022/07/13 04:34:24;;;;;;;3.28;2.13;;;16.50;99.90;;;;;;5041162;28;20553;-79
2022/07/13 04:36:51;;;;;;;4.03;2.20;;;16.50;99.90;;;;;;5041535;28;20552;-78
2022/07/13 04:39:17;;;;;;;3.42;2.10;;;16.50;99.90;;;;;;5038540;28;20036;-79
2022/07/13 04:41:43;;;;;;;2.40;2.20;;;16.50;99.90;;;;;;5038110;28;20037;-79
2022/07/13 04:44:08;;;;;;;3.78;2.15;;;16.60;99.90;;;;;;5043364;28;20025;-79
2022/07/13 04:46:34;;;;;;;2.72;2.15;;;16.60;99.90;;;;;;5042309;28;20079;-81
2022/07/13 04:48:59;;;;;;;3.97;1.98;;;16.60;99.90;;;;;;5042522;28;20032;-80
2022/07/13 04:51:25;;;;;;;3.28;2.42;;;16.70;99.90;;;;;;5036634;28;20033;-80
2022/07/13 04:53:51;;;;;;;4.00;2.30;;;16.70;99.90;;;;;;5034453;28;20024;-80
2022/07/13 04:56:16;;;;;;;2.28;2.08;;;16.70;99.90;;;;;;5031385;28;20484;-79
2022/07/13 04:58:42;;;;;;;4.25;2.40;;;16.70;99.90;;;;;;5029469;28;20108;-80
2022/07/13 05:01:08;;;;;;;4.97;2.28;;;16.80;99.90;;;;;;5033824;28;20078;-80
2022/07/13 05:03:34;;;;;;;3.03;2.30;;;16.80;99.90;;;;;;5034989;28;20103;-80
2022/07/13 05:06:00;;;;;;;3.40;2.45;;;16.80;99.90;;;;;;5039194;28;20035;-80
2022/07/13 05:08:26;;;;;;;3.67;2.28;;;16.90;99.90;;;;;;5034948;28;20025;-80
2022/07/13 05:10:53;;;;;;;2.40;2.17;;;16.90;99.90;;;;;;5031710;28;20056;-79
2022/07/13 05:13:19;;;;;;;4.18;2.20;;;17.00;99.90;;;;;;5038963;28;20047;-79
2022/07/13 05:15:45;;;;;;;2.30;2.10;;;17.10;99.90;;;;;;5047754;28;20025;-79
2022/07/13 05:18:11;;;;;;;5.53;2.47;;;17.10;99.90;;;;;;5044967;28;20036;-78
2022/07/13 05:20:37;;;;;;;3.70;2.33;;;17.30;99.90;;;;;;5046192;28;20473;-79
2022/07/13 05:23:03;;;;;;;13.20;2.25;;;17.40;99.90;;;;;;5043882;28;20052;-79
2022/07/13 05:25:28;;;;;;;3.42;2.25;;;17.50;99.90;;;;;;5048097;28;20032;-78
2022/07/13 05:27:54;;;;;;;2.30;2.10;;;17.50;99.90;;;;;;5031886;28;20032;-78
2022/07/13 05:30:19;;;;;;;3.70;2.35;;;17.50;99.90;;;;;;5040116;28;20032;-78
2022/07/13 05:32:45;;;;;;;2.38;2.00;;;17.60;99.90;;;;;;5036916;28;20032;-79
2022/07/13 05:35:11;;;;;;;2.78;2.28;;;17.60;99.90;;;;;;5035395;28;20397;-78
2022/07/13 05:37:37;;;;;;;4.15;2.10;;;17.70;99.90;;;;;;5044296;28;20036;-78
2022/07/13 05:40:03;;;;;;;2.20;2.00;;;17.70;99.90;;;;;;5045090;28;20025;-78
2022/07/13 05:42:29;;;;;;;2.63;1.80;;;17.80;99.90;;;;;;5046360;28;20045;-78
2022/07/13 05:44:55;;;;;;;2.45;1.98;;;17.80;99.90;;;;;;5045546;28;20547;-78
2022/07/13 05:47:20;;;;;;;1.63;1.52;;;17.90;99.90;;;;;;5038025;28;20029;-78
2022/07/13 05:49:46;;;;;;;1.95;1.70;;;18.00;99.90;;;;;;5038147;28;20517;-77
2022/07/13 05:52:12;;;;;;;2.03;1.88;;;18.00;99.90;;;;;;5046556;28;20445;-77
2022/07/13 05:54:37;;;;;;;2.78;1.92;;;18.10;99.90;;;;;;5044560;28;20033;-77
2022/07/13 05:57:03;;;;;;;2.42;1.60;;;18.10;99.90;;;;;;5045432;28;20044;-77
2022/07/13 05:59:29;;;;;;;3.17;1.50;;;18.10;99.90;;;;;;5059425;28;20032;-77
2022/07/13 06:01:54;;;;;;;1.70;1.60;;;18.20;99.90;;;;;;5033360;28;20036;-77
2022/07/13 06:04:20;;;;;;;3.08;1.70;;;18.20;99.90;;;;;;5039496;28;20035;-77
2022/07/13 06:06:47;;;;;;;3.97;1.67;;;18.30;99.90;;;;;;5041823;28;20059;-77
2022/07/13 06:09:13;;;;;;;2.55;1.75;;;18.40;99.90;;;;;;5036248;28;20464;-76
2022/07/13 06:11:42;;;;;;;2.83;1.70;;;18.60;99.90;;;;;;5044018;28;20033;-77
2022/07/13 06:14:08;;;;;;;2.20;1.85;;;18.70;99.90;;;;;;5041121;28;20033;-77
2022/07/13 06:16:34;;;;;;;1.85;1.75;;;18.80;99.90;;;;;;5044364;28;20091;-77
2022/07/13 06:19:00;;;;;;;2.28;1.70;;;18.90;99.90;;;;;;5037845;28;20086;-77
2022/07/13 06:21:25;;;;;;;3.35;1.80;;;19.00;99.90;;;;;;5042667;28;20033;-77
2022/07/13 06:23:51;;;;;;;1.80;1.70;;;19.10;99.90;;;;;;5038834;28;20116;-77
2022/07/13 06:26:16;;;;;;;2.45;1.50;;;19.20;99.90;;;;;;5046056;28;20056;-77
2022/07/13 06:28:42;;;;;;;4.25;1.60;;;19.30;99.90;;;;;;5043215;28;20064;-77
2022/07/13 06:31:08;;;;;;;5.03;1.90;;;19.30;99.90;;;;;;5039319;28;20044;-77
2022/07/13 06:33:35;;;;;;;3.17;1.70;;;19.40;99.90;;;;;;5041797;28;20116;-77
2022/07/13 06:36:00;;;;;;;2.30;2.08;;;19.50;99.90;;;;;;5042958;28;20122;-77
2022/07/13 06:38:26;;;;;;;2.33;2.13;;;19.50;99.90;;;;;;5034551;28;20492;-77
2022/07/13 06:40:52;;;;;;;2.17;2.00;;;19.60;99.90;;;;;;5043357;28;20033;-77
2022/07/13 06:43:18;;;;;;;5.88;2.30;;;19.60;99.90;;;;;;5044784;28;20374;-77
2022/07/13 06:45:43;;;;;;;2.78;2.20;;;19.70;99.90;;;;;;5044172;28;20050;-77
2022/07/13 06:48:09;;;;;;;2.30;2.10;;;19.80;99.90;;;;;;5037658;28;20537;-76
2022/07/13 06:50:35;;;;;;;4.38;2.35;;;20.00;99.90;;;;;;5041854;28;20058;-77
2022/07/13 06:53:01;;;;;;;3.45;2.40;;;20.10;99.90;;;;;;5043259;28;20044;-77
2022/07/13 06:55:27;;;;;;;4.40;2.33;;;20.40;99.90;;;;;;5043310;28;20400;-77
2022/07/13 06:57:53;;;;;;;2.97;2.53;;;20.70;99.90;;;;;;5047983;28;20181;-77
2022/07/13 07:00:18;;;;;;;2.38;1.98;;;20.80;99.90;;;;;;5039637;28;20507;-77
2022/07/13 07:02:44;;;;;;;5.70;2.22;;;21.00;99.90;;;;;;5046619;28;20025;-77
2022/07/13 07:05:10;;;;;;;2.42;1.90;;;21.10;99.90;;;;;;5041902;28;20040;-77
2022/07/13 07:07:37;;;;;;;5.10;2.30;;;21.20;99.90;;;;;;5030113;28;20326;-77
2022/07/13 07:10:03;;;;;;;4.72;2.50;;;21.30;99.90;;;;;;5041486;28;20044;-77
2022/07/13 07:12:29;;;;;;;3.25;2.00;;;21.60;99.90;;;;;;5045266;28;20037;-77
2022/07/13 07:14:55;;;;;;;2.65;2.10;;;21.90;99.90;;;;;;5038405;28;20556;-77
2022/07/13 07:17:21;;;;;;;8.60;2.70;;;22.20;99.90;;;;;;5040510;28;20036;-77
2022/07/13 07:19:46;;;;;;;6.18;2.22;;;22.40;99.90;;;;;;5043207;28;20525;-77
2022/07/13 07:22:13;;;;;;;5.95;2.17;;;22.60;99.90;;;;;;5045792;28;20029;-77
2022/07/13 07:24:42;;;;;;;2.28;1.90;;;22.90;99.90;;;;;;5063604;28;20035;-77
2022/07/13 07:27:10;;;;;;;4.88;1.90;;;23.20;99.90;;;;;;5043551;28;20115;-77
2022/07/13 07:29:36;;;;;;;4.35;2.13;;;23.30;99.90;;;;;;5036131;28;20040;-77
2022/07/13 07:32:02;;;;;;;1.90;1.80;;;23.30;99.90;;;;;;5034085;28;20029;-77
2022/07/13 07:34:28;;;;;;;3.20;1.90;;;23.40;99.90;;;;;;5028957;28;20104;-77
2022/07/13 07:36:55;;;;;;;4.60;2.30;;;23.70;99.90;;;;;;5038507;28;20067;-77
2022/07/13 07:39:20;;;;;;;3.65;1.92;;;23.90;99.90;;;;;;5034137;28;20102;-77
2022/07/13 07:41:47;;;;;;;5.97;2.00;;;24.20;99.90;;;;;;5038064;28;20532;-77
2022/07/13 07:44:12;;;;;;;6.32;1.80;;;24.40;99.90;;;;;;5041862;28;20025;-77
2022/07/13 07:46:38;;;;;;;5.78;1.80;;;24.50;99.90;;;;;;5038074;28;20585;-77
2022/07/13 07:49:03;;;;;;;3.05;1.98;;;24.30;99.90;;;;;;5035886;28;20044;-77
2022/07/13 08:40:14;;;;;;;3.92;1.90;;;24.00;99.90;;;;;;5074203;28;20063;-74
2022/07/13 08:42:40;;;;;;;3.25;1.90;;;24.10;99.90;;;;;;5074587;28;20040;-75
2022/07/13 08:45:06;;;;;;;3.78;1.85;;;24.20;99.90;;;;;;5073619;28;20028;-75
2022/07/13 08:47:34;;;;;;;5.75;1.80;;;24.20;99.90;;;;;;5081697;28;20027;-75
2022/07/13 08:50:06;;;;;;;3.50;1.73;;;24.30;99.90;;;;;;5070282;28;20033;-75
2022/07/13 08:52:38;;;;;;;10.38;2.00;;;24.30;99.90;;;;;;5071575;28;20552;-75
2022/07/13 08:55:05;;;;;;;4.68;1.85;;;24.40;99.90;;;;;;5069383;28;20035;-75
2022/07/13 08:57:34;;;;;;;7.50;2.00;;;24.50;99.90;;;;;;5076131;28;20086;-76
2022/07/13 09:00:01;;;;;;;3.10;1.55;;;24.50;99.90;;;;;;5070940;28;20040;-75
2022/07/13 09:02:26;;;;;;;3.45;1.80;;;24.70;99.90;;;;;;5071304;28;20494;-76
2022/07/13 09:04:52;;;;;;;4.45;1.90;;;;;;;;;;5071531;28;20086;-74
2022/07/13 09:07:18;;;;;;;4.18;1.92;;;25.20;99.90;;;;;;5072665;28;20035;-76
2022/07/13 09:09:44;;;;;;;4.15;1.90;;;25.40;99.90;;;;;;5080360;28;20032;-75
2022/07/13 09:12:16;;;;;;;5.18;1.90;;;25.50;99.90;;;;;;5059827;28;20598;-76
2022/07/13 09:14:44;;;;;;;2.60;1.83;;;25.80;99.40;;;;;;5064311;28;20028;-76
2022/07/13 09:17:37;;;;;;;4.18;1.80;;;25.90;98.40;;;;;;5055098;28;20029;-76
2022/07/13 09:20:18;;;;;;;4.88;1.60;;;26.20;98.00;;;;;;5043626;28;20832;-76
2022/07/13 09:22:55;;;;;;;7.47;2.10;;;26.50;97.60;;;;;;5052140;28;20355;-76
2022/07/13 09:25:29;;;;;;;7.07;2.38;;;26.80;96.20;;;;;;5052955;28;20033;-76
2022/07/13 09:27:55;;;;;;;3.00;1.80;;;27.00;95.20;;;;;;5050545;28;20078;-76
2022/07/13 09:30:25;;;;;;;6.03;2.00;;;27.30;94.60;;;;;;5044895;28;20032;-76
2022/07/13 09:32:55;;;;;;;1.60;1.50;;;27.40;93.50;;;;;;5050614;28;20033;-76
2022/07/13 09:35:40;;;;;;;2.58;1.40;;;27.50;91.80;;;;;;5058844;28;20471;-76
2022/07/13 09:38:05;;;;;;;3.03;1.48;;;27.70;90.10;;;;;;5055984;28;20677;-76
2022/07/13 09:40:31;;;;;;;3.65;1.33;;;27.90;90.20;;;;;;5053819;28;20027;-76
2022/07/13 09:48:26;;;;;;;2.47;1.20;;;28.70;84.20;;;;;;5049418;28;20465;-76
2022/07/13 09:50:54;;;;;;;1.67;1.20;;;28.90;81.10;;;;;;5064494;28;20119;-75
2022/07/13 09:53:24;;;;;;;2.42;1.23;;;28.80;79.10;;;;;;5037839;28;20476;-77
2022/07/13 09:55:51;;;;;;;2.42;1.10;;;28.80;77.80;;;;;;5036480;28;20037;-76
2022/07/13 09:58:22;;;;;;;4.90;1.23;;;28.90;76.30;;;;;;5051492;28;20037;-77
2022/07/13 10:00:49;;;;;;;2.42;1.30;;;28.90;78.00;;;;;;5034987;28;20527;-75
2022/07/13 10:03:15;;;;;;;2.70;1.17;;;29.00;78.10;;;;;;5031366;28;20278;-78
2022/07/13 10:05:42;;;;;;;1.95;1.20;;;29.00;75.60;;;;;;5037329;28;20481;-76
2022/07/13 10:08:08;;;;;;;1.90;1.20;;;29.10;74.90;;;;;;5051294;28;20033;-75
2022/07/13 10:10:33;;;;;;;2.65;1.65;;;29.20;74.30;;;;;;5048794;28;20024;-76
2022/07/13 10:13:05;;;;;;;4.47;1.40;;;29.30;75.10;;;;;;5041365;28;20390;-76
2022/07/13 10:15:31;;;;;;;2.60;1.10;;;29.30;71.40;;;;;;5067272;28;20107;-76
2022/07/13 10:18:00;;;;;;;3.63;1.40;;;29.30;72.00;;;;;;5055006;28;20194;-76
2022/07/13 10:20:26;;;;;;;1.63;1.10;;;29.50;71.30;;;;;;5039867;28;20024;-76
2022/07/13 10:22:52;;;;;;;2.05;1.00;;;29.50;70.30;;;;;;5065504;28;20518;-77
2022/07/13 10:25:19;;;;;;;6.22;1.13;;;29.40;68.70;;;;;;5058222;28;20049;-76
2022/07/13 10:27:45;;;;;;;1.73;0.93;;;29.50;68.00;;;;;;5057430;28;20477;-75
2022/07/13 10:30:22;;;;;;;1.40;1.30;;;29.70;68.90;;;;;;5034155;28;20040;-75
2022/07/13 10:32:48;;;;;;;1.30;1.20;;;29.90;68.40;;;;;;5039890;28;20134;-75
2022/07/13 10:35:16;;;;;;;5.45;1.25;;;30.20;66.30;;;;;;5039621;28;20021;-75
2022/07/13 10:38:00;;;;;;;2.97;1.20;;;30.20;65.20;;;;;;5041916;28;20030;-75
2022/07/13 10:40:30;;;;;;;1.95;1.13;;;30.10;64.70;;;;;;5063594;28;20021;-75
2022/07/13 10:42:57;;;;;;;2.55;1.30;;;30.00;62.20;;;;;;5046042;28;20025;-75
2022/07/13 10:45:32;;;;;;;2.55;1.23;;;30.00;60.30;;;;;;5043112;28;20029;-76
2022/07/13 10:47:58;;;;;;;3.72;1.30;;;29.90;62.00;;;;;;5039659;28;20135;-75
2022/07/13 10:50:26;;;;;;;4.25;1.55;;;29.70;61.10;;;;;;5052952;28;20414;-76
2022/07/13 10:52:52;;;;;;;1.42;1.13;;;29.60;61.20;;;;;;5045428;28;20040;-76
2022/07/13 10:55:21;;;;;;;2.38;1.33;;;29.40;61.80;;;;;;5040569;28;20505;-76
2022/07/13 10:57:46;;;;;;;1.95;1.00;;;29.30;62.10;;;;;;5030377;28;20548;-76
2022/07/13 11:00:28;;;;;;;2.00;1.35;;;29.10;63.10;;;;;;5036247;28;20029;-75
2022/07/13 11:03:01;;;;;;;1.33;1.20;;;29.00;62.70;;;;;;5052091;28;20378;-74
2022/07/13 11:05:30;;;;;;;1.40;1.30;;;28.80;62.30;;;;;;5057485;28;20569;-74
2022/07/13 11:07:56;;;;;;;2.25;1.20;;;28.70;62.20;;;;;;5052822;28;20049;-73
2022/07/13 11:10:25;;;;;;;1.75;1.30;;;28.70;64.50;;;;;;5041249;28;20021;-76
2022/07/13 11:13:04;;;;;;;3.67;1.20;;;28.50;64.10;;;;;;5039963;28;20073;-76
2022/07/13 11:15:48;;;;;;;4.07;1.40;;;28.40;63.30;;;;;;5057736;28;20089;-76
2022/07/13 11:18:22;;;;;;;2.53;1.48;;;28.40;65.40;;;;;;5036787;28;20083;-76
2022/07/13 11:21:12;;;;;;;7.43;1.60;;;28.30;64.60;;;;;;5039577;28;20025;-76
2022/07/13 11:26:52;;;;;;;5.05;1.48;;;28.30;65.00;;;;;;5044192;28;20071;-76
2022/07/13 11:29:41;;;;;;;1.67;1.58;;;28.30;65.40;;;;;;5043201;28;20514;-76
2022/07/13 11:32:07;;;;;;;3.45;1.58;;;28.30;66.90;;;;;;5063242;28;20035;-75
2022/07/13 11:34:34;;;;;;;1.88;1.42;;;28.30;67.70;;;;;;5062401;28;20032;-76
2022/07/13 11:37:01;;;;;;;2.05;1.48;;;28.30;66.80;;;;;;5036105;28;20114;-76
2022/07/13 11:39:32;;;;;;;1.50;1.40;;;28.30;66.20;;;;;;5037335;28;20052;-76
2022/07/13 11:42:00;;;;;;;1.95;1.50;;;28.30;65.60;;;;;;5058137;28;20021;-76
2022/07/13 11:44:30;;;;;;;1.80;1.50;;;28.30;66.10;;;;;;5040152;28;20025;-76
2022/07/13 11:46:58;;;;;;;5.82;1.58;;;28.40;65.50;;;;;;5028463;28;20131;-76
2022/07/13 11:49:24;;;;;;;6.75;1.50;;;28.40;65.00;;;;;;5026991;28;20036;-76
2022/07/13 11:51:51;;;;;;;2.15;1.40;;;28.50;64.50;;;;;;5038571;28;20044;-76
2022/07/13 11:54:21;;;;;;;1.95;1.50;;;28.80;64.90;;;;;;5034743;28;20036;-76
2022/07/13 11:56:57;;;;;;;4.07;1.30;;;29.00;63.40;;;;;;5043513;28;20033;-76
2022/07/13 11:59:42;;;;;;;2.35;1.23;;;29.30;62.60;;;;;;5038014;28;20086;-75
2022/07/13 12:02:09;;;;;;;5.18;1.50;;;29.60;61.80;;;;;;5034116;28;20212;-77
2022/07/13 12:04:45;;;;;;;1.45;1.33;;;29.70;61.80;;;;;;4346777;28;10000939;-75
2022/07/13 12:07:17;;;;;;;5.40;1.50;;;29.90;62.10;;;;;;5064500;28;20040;-75
2022/07/13 12:09:51;;;;;;;3.28;1.30;;;29.90;60.00;;;;;;5066024;28;20884;-75
2022/07/13 12:12:21;;;;;;;3.45;1.23;;;29.90;60.40;;;;;;5064747;28;20047;-75
2022/07/13 12:14:49;;;;;;;1.35;1.10;;;29.80;59.80;;;;;;5061574;28;20520;-75
2022/07/13 12:17:15;;;;;;;3.30;1.50;;;29.70;61.00;;;;;;5057187;28;20328;-76
2022/07/13 12:19:41;;;;;;;6.68;1.27;;;29.60;62.10;;;;;;5071392;28;20025;-76
2022/07/13 12:22:07;;;;;;;3.42;1.30;;;29.70;62.10;;;;;;5057502;28;20439;-76
2022/07/13 12:24:33;;;;;;;3.17;1.20;;;29.90;61.20;;;;;;5064057;28;20061;-76
2022/07/13 12:26:59;;;;;;;3.05;1.20;;;30.10;60.80;;;;;;5075075;28;20063;-76
2022/07/13 12:29:31;;;;;;;5.05;1.27;;;30.20;58.60;;;;;;5072232;28;20039;-75
2022/07/13 12:32:00;;;;;;;4.03;1.48;;;30.10;57.90;;;;;;5063669;28;20074;-75
2022/07/13 12:34:26;;;;;;;2.85;1.40;;;30.00;58.50;;;;;;5059140;28;20124;-75
2022/07/13 12:36:52;;;;;;;5.25;1.10;;;29.90;58.30;;;;;;5052876;28;20612;-75
2022/07/13 12:39:40;;;;;;;1.55;1.45;;;29.90;57.90;;;;;;5028813;28;20024;-75
2022/07/13 12:42:07;;;;;;;6.20;1.40;;;29.90;57.60;;;;;;5028673;28;20316;-75
2022/07/13 12:44:32;;;;;;;2.05;1.10;;;29.90;56.00;;;;;;5036615;28;20029;-75
2022/07/13 12:47:02;;;;;;;2.17;1.10;;;29.90;56.10;;;;;;5036813;28;20551;-75
2022/07/13 12:49:35;;;;;;;2.80;1.20;;;30.00;56.90;;;;;;5035192;28;20039;-75
2022/07/13 12:52:05;;;;;;;;;;;30.10;56.70;;;;;;5024840;28;20084;-75
2022/07/13 12:54:48;;;;;;;5.07;1.10;;;30.30;56.60;;;;;;5037517;28;20383;-75
2022/07/13 12:57:22;;;;;;;1.23;1.13;;;30.60;56.90;;;;;;5030440;28;20385;-74
2022/07/13 13:00:12;;;;;;;2.78;1.00;;;30.80;55.70;;;;;;5029258;28;20022;-75
2022/07/13 13:02:41;;;;;;;3.03;1.00;;;30.80;54.30;;;;;;5021953;28;20181;-75
2022/07/13 13:05:11;;;;;;;2.58;1.10;;;30.80;53.30;;;;;;5010526;28;20034;-75
2022/07/13 13:07:37;;;;;;;3.47;1.00;;;30.70;53.20;;;;;;5022715;28;20052;-76
2022/07/13 13:10:04;;;;;;;4.60;1.00;;;30.70;52.10;;;;;;5016373;28;20462;-76
2022/07/13 13:12:30;;;;;;;6.25;1.15;;;30.60;51.50;;;;;;5042465;28;20032;-76
2022/07/13 13:14:56;;;;;;;2.90;1.00;;;30.60;51.10;;;;;;5027858;28;20104;-76
2022/07/13 13:17:22;;;;;;;2.28;0.90;;;30.40;51.50;;;;;;5037317;28;20036;-79
2022/07/13 13:19:47;;;;;;;2.65;0.95;;;30.30;51.90;;;;;;5027089;28;20029;-77
2022/07/13 13:22:13;;;;;;;4.35;1.00;;;30.10;52.20;;;;;;5038516;28;20642;-77
2022/07/13 13:24:39;;;;;;;1.20;1.10;;;30.00;52.60;;;;;;5037015;28;20664;-79
2022/07/13 13:27:05;;;;;;;2.25;0.98;;;29.90;51.90;;;;;;5033687;28;20036;-78
2022/07/13 13:32:20;;;;;;;1.80;1.30;;;29.80;51.60;;;;;;5026997;28;20386;-77
2022/07/13 13:34:46;;;;;;;3.05;1.50;;;29.70;51.40;;;;;;5037611;28;20496;-77
2022/07/13 13:37:11;;;;;;;4.85;1.60;;;29.70;52.00;;;;;;5041851;28;20512;-76
2022/07/13 13:39:37;;;;;;;3.63;1.48;;;29.50;51.80;;;;;;5037156;28;20025;-76
2022/07/13 13:42:03;;;;;;;4.53;1.55;;;29.50;52.20;;;;;;5036939;28;20522;-76
2022/07/13 13:44:29;;;;;;;3.28;1.75;;;29.40;52.80;;;;;;5050641;28;20492;-76
2022/07/13 13:46:55;;;;;;;2.90;1.30;;;29.30;52.30;;;;;;5040843;28;20037;-77
2022/07/13 13:49:20;;;;;;;4.18;1.40;;;29.20;51.30;;;;;;5037134;28;20025;-75